createdAt,value
2019-03-27T00:04:00.762Z,101352.14
2019-03-27T00:09:06.745Z,101339.24
2019-03-27T00:14:11.595Z,101339.24
2019-03-27T00:19:16.356Z,101331.16
2019-03-27T00:24:21.084Z,101332.03
2019-03-27T00:29:25.752Z,101333.77
2019-03-27T00:34:30.348Z,101338.85
2019-03-27T00:39:35.179Z,101338.19
2019-03-27T00:44:40.328Z,101338.28
2019-03-27T00:50:25.541Z,101346.84
2019-03-27T00:55:30.312Z,101342.41
2019-03-27T01:01:02.306Z,101332.11
2019-03-27T01:06:07.332Z,101346.30
2019-03-27T01:11:12.025Z,101347.31
2019-03-27T01:16:16.763Z,101348.03
2019-03-27T01:21:21.473Z,101345.52
2019-03-27T01:26:26.053Z,101343.44
2019-03-27T01:31:30.795Z,101343.44
2019-03-27T01:36:35.340Z,101346.76
2019-03-27T01:41:39.996Z,101343.95
2019-03-27T01:46:44.713Z,101346.44
2019-03-27T01:51:49.291Z,101352.92
2019-03-27T01:56:53.886Z,101350.80
2019-03-27T02:01:58.505Z,101350.80
2019-03-27T02:07:03.115Z,101357.66
2019-03-27T02:12:07.739Z,101359.63
2019-03-27T02:17:12.625Z,101363.36
2019-03-27T02:22:17.199Z,101370.65
2019-03-27T02:27:21.778Z,101367.53
2019-03-27T02:32:26.444Z,101367.53
2019-03-27T02:37:31.009Z,101357.08
2019-03-27T02:42:35.732Z,101378.78
2019-03-27T02:47:40.344Z,101390.41
2019-03-27T02:52:45.062Z,101390.41
2019-03-27T02:57:49.745Z,101382.17
2019-03-27T03:02:54.352Z,101382.17
2019-03-27T03:07:58.942Z,101385.42
2019-03-27T03:13:03.694Z,101383.73
2019-03-27T03:18:09.428Z,101386.91
2019-03-27T03:23:14.006Z,101386.91
2019-03-27T03:28:18.765Z,101388.94
2019-03-27T03:33:23.374Z,101388.94
2019-03-27T03:38:28.031Z,101406.59
2019-03-27T03:43:32.737Z,101410.16
2019-03-27T03:48:37.330Z,101412.11
2019-03-27T03:53:41.989Z,101423.34
2019-03-27T03:58:48.728Z,101422.00
2019-03-27T04:03:55.356Z,101425.69
2019-03-27T04:08:59.895Z,101425.69
2019-03-27T04:14:04.583Z,101407.33
2019-03-27T04:19:09.311Z,101420.88
2019-03-27T04:24:13.967Z,101426.33
2019-03-27T04:29:18.548Z,101430.77
2019-03-27T04:34:23.132Z,101430.77
2019-03-27T04:39:27.702Z,101438.36
2019-03-27T04:44:32.319Z,101438.36
2019-03-27T04:49:36.952Z,101449.80
2019-03-27T04:54:41.538Z,101450.84
2019-03-27T04:59:46.151Z,101432.48
2019-03-27T05:04:50.937Z,101448.36
2019-03-27T05:09:55.528Z,101449.78
2019-03-27T05:15:00.247Z,101456.55
2019-03-27T05:20:06.299Z,101470.95
2019-03-27T05:25:11.006Z,101470.13
2019-03-27T05:30:19.432Z,101479.14
2019-03-27T05:35:24.150Z,101489.47
2019-03-27T05:40:28.820Z,101467.13
2019-03-27T05:45:33.528Z,101489.23
2019-03-27T05:50:38.233Z,101489.23
2019-03-27T05:55:42.833Z,101499.16
2019-03-27T06:00:47.450Z,101499.16
2019-03-27T06:05:52.129Z,101510.47
2019-03-27T06:10:56.742Z,101515.93
2019-03-27T06:16:01.480Z,101509.13
2019-03-27T06:21:06.048Z,101528.55
2019-03-27T06:26:10.677Z,101526.33
2019-03-27T06:31:15.432Z,101536.22
2019-03-27T06:36:20.069Z,101536.30
2019-03-27T06:41:24.852Z,101542.62
2019-03-27T06:46:29.588Z,101542.66
2019-03-27T06:51:39.873Z,101543.14
2019-03-27T06:56:40.536Z,101540.45
2019-03-27T07:01:45.146Z,101540.45
2019-03-27T07:06:49.749Z,101543.61
2019-03-27T07:11:54.483Z,101553.50
2019-03-27T07:16:59.153Z,101553.50
2019-03-27T07:22:03.801Z,101577.69
2019-03-27T07:27:08.446Z,101572.78
2019-03-27T07:32:13.074Z,101583.62
2019-03-27T07:37:17.673Z,101584.48
2019-03-27T07:42:22.241Z,101591.68
2019-03-27T07:47:26.893Z,101596.11
2019-03-27T07:52:31.514Z,101582.19
2019-03-27T07:57:36.389Z,101596.19
2019-03-27T08:02:41.027Z,101577.68
2019-03-27T08:07:45.712Z,101597.93
2019-03-27T08:12:50.441Z,101597.93
2019-03-27T08:17:55.133Z,101589.47
2019-03-27T08:22:59.771Z,101593.03
2019-03-27T08:28:04.448Z,101589.00
2019-03-27T08:33:09.197Z,101604.45
2019-03-27T08:38:15.160Z,101625.01
2019-03-27T08:43:21.430Z,101625.01
2019-03-27T08:48:26.140Z,101599.95
2019-03-27T08:53:30.704Z,101607.66
2019-03-27T08:58:35.244Z,101607.66
2019-03-27T09:03:39.804Z,101611.23
2019-03-27T09:08:44.343Z,101610.20
2019-03-27T09:13:48.913Z,101601.23
2019-03-27T09:18:53.475Z,101601.23
2019-03-27T09:23:58.126Z,101597.34
2019-03-27T09:29:02.806Z,101606.56
2019-03-27T09:34:07.424Z,101596.27
2019-03-27T09:39:12.134Z,101591.69
2019-03-27T09:44:16.778Z,101591.69
2019-03-27T09:49:21.312Z,101604.66
2019-03-27T09:54:25.851Z,101615.23
2019-03-27T09:59:30.478Z,101613.30
2019-03-27T10:04:35.031Z,101616.19
2019-03-27T10:09:39.591Z,101619.89
2019-03-27T10:14:47.318Z,101619.89
2019-03-27T10:20:02.722Z,101619.27
2019-03-27T10:24:56.773Z,101622.14
2019-03-27T10:30:01.331Z,101621.78
2019-03-27T10:35:07.152Z,101621.78
2019-03-27T10:40:11.964Z,101621.67
2019-03-27T10:45:16.706Z,101622.08
2019-03-27T10:50:21.538Z,101622.08
2019-03-27T10:55:26.115Z,101616.36
2019-03-27T11:00:30.830Z,101622.59
2019-03-27T11:05:35.486Z,101622.59
2019-03-27T11:10:40.115Z,101623.77
2019-03-27T11:15:44.830Z,101623.77
2019-03-27T11:20:49.394Z,101615.66
2019-03-27T11:25:54.031Z,101615.66
2019-03-27T11:30:58.669Z,101619.14
2019-03-27T11:36:03.388Z,101635.50
2019-03-27T11:41:08.121Z,101630.83
2019-03-27T11:46:13.196Z,101643.70
2019-03-27T11:51:17.832Z,101625.94
2019-03-27T11:56:22.450Z,101606.32
2019-03-27T12:01:38.952Z,101609.69
2019-03-27T12:06:33.436Z,101610.16
2019-03-27T12:11:38.122Z,101610.16
2019-03-27T12:16:42.766Z,101608.78
2019-03-27T12:21:47.417Z,101607.54
2019-03-27T12:26:51.954Z,101608.84
2019-03-27T12:31:56.621Z,101601.55
2019-03-27T12:37:01.174Z,101604.50
2019-03-27T12:42:05.792Z,101604.41
2019-03-27T12:47:10.489Z,101606.89
2019-03-27T12:52:15.176Z,101586.82
2019-03-27T12:57:19.728Z,101605.33
2019-03-27T13:02:24.351Z,101588.20
2019-03-27T13:07:28.957Z,101588.20
2019-03-27T13:12:33.509Z,101596.06
2019-03-27T13:17:38.135Z,101582.52
2019-03-27T13:22:42.755Z,101584.81
2019-03-27T13:27:47.682Z,101598.67
2019-03-27T13:32:52.393Z,101600.55
2019-03-27T13:37:56.949Z,101589.20
2019-03-27T13:43:01.496Z,101589.90
2019-03-27T13:48:06.199Z,101584.28
2019-03-27T13:53:10.764Z,101588.16
2019-03-27T13:58:15.279Z,101580.16
2019-03-27T14:03:19.808Z,101581.77
2019-03-27T14:08:24.654Z,101584.59
2019-03-27T14:13:29.274Z,101575.16
2019-03-27T14:18:33.824Z,101576.07
2019-03-27T14:23:38.554Z,101576.07
2019-03-27T14:28:43.122Z,101571.31
2019-03-27T14:33:47.765Z,101567.82
2019-03-27T14:38:52.418Z,101566.12
2019-03-27T14:43:56.958Z,101566.12
2019-03-27T14:49:01.528Z,101566.85
2019-03-27T14:54:06.368Z,101566.85
2019-03-27T14:59:10.994Z,101563.38
2019-03-27T15:04:15.707Z,101562.95
2019-03-27T15:09:20.887Z,101569.66
2019-03-27T15:14:25.583Z,101569.97
2019-03-27T15:19:30.184Z,101564.40
2019-03-27T15:24:34.904Z,101567.59
2019-03-27T15:29:39.640Z,101567.59
2019-03-27T15:34:44.379Z,101564.29
2019-03-27T15:39:49.102Z,101556.54
2019-03-27T15:44:53.879Z,101547.42
2019-03-27T15:49:58.590Z,101547.42
2019-03-27T15:55:03.568Z,101559.71
2019-03-27T16:00:08.779Z,101555.44
2019-03-27T16:05:13.568Z,101554.05
2019-03-27T16:10:18.623Z,101556.98
2019-03-27T16:15:23.344Z,101552.37
2019-03-27T16:20:28.109Z,101555.95
2019-03-27T16:25:32.674Z,101555.95
2019-03-27T16:30:37.316Z,101549.38
2019-03-27T16:35:41.887Z,101547.28
2019-03-27T16:40:50.378Z,101546.50
2019-03-27T16:45:55.160Z,101534.42
2019-03-27T16:51:00.004Z,101556.42
2019-03-27T16:56:04.784Z,101551.13
2019-03-27T17:01:09.332Z,101551.13
2019-03-27T17:06:14.826Z,101564.36
2019-03-27T17:11:19.467Z,101574.12
2019-03-27T17:16:24.177Z,101574.12
2019-03-27T17:21:28.922Z,101578.16
2019-03-27T17:26:33.687Z,101581.00
2019-03-27T17:31:38.313Z,101581.00
2019-03-27T17:36:42.926Z,101590.21
2019-03-27T17:41:47.560Z,101585.29
2019-03-27T17:46:52.200Z,101590.93
2019-03-27T17:51:56.862Z,101590.69
2019-03-27T17:57:01.397Z,101586.02
2019-03-27T18:02:06.103Z,101600.77
2019-03-27T18:07:10.737Z,101613.86
2019-03-27T18:12:15.516Z,101612.27
2019-03-27T18:17:20.143Z,101612.27
2019-03-27T18:22:24.726Z,101626.70
2019-03-27T18:27:29.403Z,101619.56
2019-03-27T18:32:34.108Z,101638.91
2019-03-27T18:37:38.737Z,101640.05
2019-03-27T18:42:43.553Z,101644.88
2019-03-27T18:47:48.088Z,101650.67
2019-03-27T18:52:52.648Z,101654.55
2019-03-27T18:58:00.308Z,101664.22
2019-03-27T19:03:03.463Z,101662.80
2019-03-27T19:08:08.129Z,101671.78
2019-03-27T19:13:12.845Z,101663.52
2019-03-27T19:18:17.452Z,101679.66
2019-03-27T19:23:22.008Z,101679.66
2019-03-27T19:28:26.589Z,101686.31
2019-03-27T19:33:31.126Z,101682.27
2019-03-27T19:38:35.971Z,101691.30
2019-03-27T19:43:40.610Z,101694.31
2019-03-27T19:48:45.152Z,101698.67
2019-03-27T19:53:49.693Z,101695.97
2019-03-27T19:59:02.084Z,101679.28
2019-03-27T20:04:07.048Z,101679.28
2019-03-27T20:09:11.644Z,101693.10
2019-03-27T20:14:16.303Z,101694.45
2019-03-27T20:19:20.881Z,101694.45
2019-03-27T20:24:25.583Z,101676.78
2019-03-27T20:29:30.114Z,101687.09
2019-03-27T20:34:34.664Z,101680.66
2019-03-27T20:39:42.434Z,101680.66
2019-03-27T20:44:45.570Z,101687.70
2019-03-27T20:49:50.125Z,101684.53
2019-03-27T20:54:55.578Z,101679.66
2019-03-27T21:00:00.394Z,101663.31
2019-03-27T21:05:05.785Z,101681.31
2019-03-27T21:10:11.030Z,101679.09
2019-03-27T21:15:15.848Z,101679.66
2019-03-27T21:20:20.411Z,101681.05
2019-03-27T21:25:25.025Z,101686.14
2019-03-27T21:30:29.593Z,101684.78
2019-03-27T21:35:34.222Z,101692.48
2019-03-27T21:40:38.827Z,101692.88
2019-03-27T21:45:43.397Z,101697.30
2019-03-27T21:50:48.118Z,101696.34
2019-03-27T21:55:52.700Z,101701.73
2019-03-27T22:00:57.271Z,101698.16
2019-03-27T22:06:01.845Z,101698.16
2019-03-27T22:11:06.501Z,101704.08
2019-03-27T22:16:11.115Z,101708.59
2019-03-27T22:21:15.941Z,101714.86
2019-03-27T22:26:20.543Z,101714.94
2019-03-27T22:31:25.221Z,101712.64
2019-03-27T22:36:29.925Z,101712.64
2019-03-27T22:41:34.547Z,101723.96
2019-03-27T22:46:39.175Z,101726.73
2019-03-27T22:51:43.911Z,101720.88
2019-03-27T22:56:48.528Z,101720.88
2019-03-27T23:01:53.309Z,101717.23
2019-03-27T23:06:57.935Z,101712.70
2019-03-27T23:12:02.503Z,101712.70
2019-03-27T23:17:07.080Z,101718.57
2019-03-27T23:22:11.678Z,101715.48
2019-03-27T23:27:16.280Z,101718.97
2019-03-27T23:32:20.870Z,101708.56
2019-03-27T23:37:25.499Z,101710.01
2019-03-27T23:42:30.039Z,101710.01
2019-03-27T23:47:34.675Z,101706.44
2019-03-27T23:52:39.248Z,101715.66
2019-03-27T23:57:43.922Z,101703.22
